createdAt,value
2018-11-21T16:41:05.060Z,1004.5
2018-11-21T16:42:03.604Z,1004.47
2018-11-21T16:43:02.321Z,1004.52
2018-11-21T16:44:00.829Z,1004.53
2018-11-21T16:44:59.503Z,1004.47
2018-11-21T16:45:58.073Z,1004.49
2018-11-21T16:46:56.773Z,1004.48
2018-11-21T16:47:55.302Z,1004.48
2018-11-21T16:48:53.891Z,1004.58
2018-11-21T16:51:01.660Z,1004.55
2018-11-21T16:52:00.307Z,1004.59
2018-11-21T16:52:58.926Z,1004.57
2018-11-21T16:53:57.499Z,1004.58
2018-11-21T16:54:56.190Z,1004.64
2018-11-21T16:55:54.704Z,1004.58
2018-11-21T16:56:53.226Z,1004.51
2018-11-21T16:57:51.862Z,1004.61
2018-11-21T16:58:50.652Z,1004.63
2018-11-21T16:59:49.223Z,1004.63
2018-11-21T17:00:47.821Z,1004.65
2018-11-21T17:01:46.367Z,1004.67
2018-11-21T17:02:44.950Z,1004.65
2018-11-21T17:03:43.471Z,1004.67
2018-11-21T17:04:42.036Z,1004.61
2018-11-21T17:05:40.642Z,1004.65
2018-11-21T17:06:39.178Z,1004.62
2018-11-21T17:07:37.840Z,1004.72
2018-11-21T17:08:36.453Z,1004.64
2018-11-21T17:09:34.978Z,1004.62
2018-11-21T17:10:33.532Z,1004.67
2018-11-21T17:11:32.351Z,1004.67
2018-11-21T17:12:30.861Z,1004.65
2018-11-21T17:13:29.408Z,1004.66
2018-11-21T17:14:28.034Z,1004.65
2018-11-21T17:15:26.554Z,1004.65
2018-11-21T17:16:25.148Z,1004.62
2018-11-21T17:17:23.708Z,1004.68
2018-11-21T17:18:22.277Z,1004.65
2018-11-21T17:19:20.788Z,1004.66
2018-11-21T17:20:19.302Z,1004.69
2018-11-21T17:21:17.861Z,1004.7
2018-11-21T17:22:16.539Z,1004.69
2018-11-21T17:23:15.077Z,1004.68
2018-11-21T17:24:13.734Z,1004.69
2018-11-21T17:25:12.291Z,1004.72
2018-11-21T17:26:10.938Z,1004.72
2018-11-21T17:27:09.445Z,1004.73
2018-11-21T17:28:08.110Z,1004.72
2018-11-21T17:29:08.762Z,1004.79
2018-11-21T17:30:05.440Z,1004.74
2018-11-21T17:31:04.045Z,1004.79
2018-11-21T17:32:02.638Z,1004.76
2018-11-21T17:33:01.192Z,1004.78
2018-11-21T17:33:59.845Z,1004.76
2018-11-21T17:34:58.566Z,1004.8
2018-11-21T17:37:38.856Z,1004.82
2018-11-21T17:41:17.561Z,1004.89
2018-11-21T17:42:16.297Z,1004.89
2018-11-21T17:43:14.861Z,1004.89
2018-11-21T17:44:13.397Z,1004.94
2018-11-21T17:45:12.346Z,1004.85
2018-11-21T17:46:10.945Z,1004.9
2018-11-21T17:47:09.491Z,1004.86
2018-11-21T17:48:08.035Z,1004.82
2018-11-21T17:49:06.982Z,1004.88
2018-11-21T17:50:05.586Z,1004.86
2018-11-21T17:51:04.187Z,1004.85
2018-11-21T17:52:02.938Z,1004.89
2018-11-21T17:53:01.487Z,1004.91
2018-11-21T17:54:00.291Z,1004.9
2018-11-21T17:54:58.997Z,1004.87
2018-11-21T17:55:57.723Z,1004.9
2018-11-21T17:56:56.755Z,1004.89
2018-11-21T17:57:55.289Z,1004.88
2018-11-21T18:00:18.354Z,1004.95
2018-11-21T18:02:58.798Z,1005
2018-11-21T18:03:58.239Z,1004.97
2018-11-21T18:04:56.780Z,1004.97
2018-11-21T18:05:55.624Z,1004.94
2018-11-21T18:08:36.323Z,1004.98
2018-11-21T18:09:35.539Z,1004.91
2018-11-21T18:10:34.074Z,1004.96
2018-11-21T18:11:32.700Z,1004.95
2018-11-21T18:12:31.855Z,1004.89
2018-11-21T18:31:11.981Z,1005.1
2018-11-21T18:32:11.351Z,1004.98
2018-11-21T18:33:09.989Z,1005
2018-11-21T18:34:08.816Z,1004.97
2018-11-21T18:36:31.731Z,1004.99
2018-11-21T18:37:30.565Z,1005.03
2018-11-21T18:40:10.946Z,1005.04
2018-11-21T18:41:09.480Z,1005
2018-11-21T18:42:08.186Z,1004.99
2018-11-21T18:43:06.813Z,1004.98
2018-11-21T18:44:05.320Z,1005.06
2018-11-21T18:45:04.217Z,1005.06
2018-11-21T18:46:03.072Z,1005.01
2018-11-21T18:47:01.780Z,1005.02
2018-11-21T18:48:00.174Z,1005.01
2018-11-21T18:48:58.815Z,1005.05
2018-11-21T18:49:57.339Z,1005.02
2018-11-21T18:50:55.991Z,1005.01
2018-11-21T18:53:36.007Z,1005
2018-11-21T18:54:34.941Z,1005.05
2018-11-21T18:55:33.607Z,1005.08
2018-11-21T18:56:32.169Z,1005.14
2018-11-21T19:00:58.226Z,1005.16
2018-11-21T19:01:57.279Z,1005.11
2018-11-21T19:02:56.437Z,1005.17
2018-11-21T19:03:55.100Z,1005.14
2018-11-21T19:04:53.805Z,1005.1
2018-11-21T19:05:53.244Z,1005.18
2018-11-21T19:06:51.821Z,1005.05
2018-11-21T19:07:50.745Z,1005.06
2018-11-21T19:08:49.743Z,1005.07
2018-11-21T19:09:48.397Z,1005.06
2018-11-21T19:10:46.924Z,1005.09
2018-11-21T19:11:45.497Z,1005.12
2018-11-21T19:12:44.893Z,1005.15
2018-11-21T19:15:02.149Z,1005.15
2018-11-21T19:16:00.748Z,1005.19
2018-11-21T19:16:59.575Z,1005.2
2018-11-21T19:17:59.117Z,1005.16
2018-11-21T19:18:57.726Z,1005.15
2018-11-21T19:19:56.578Z,1005.16
2018-11-21T19:20:55.218Z,1005.21
2018-11-21T19:21:53.779Z,1005.19
2018-11-21T19:22:52.644Z,1005.17
2018-11-21T19:23:51.328Z,1005.17
2018-11-21T19:24:49.975Z,1005.18
2018-11-21T19:25:48.931Z,1005.17
2018-11-21T19:26:47.579Z,1005.16
2018-11-21T19:27:46.444Z,1005.18
2018-11-21T19:28:45.654Z,1005.11
2018-11-21T19:29:44.407Z,1005.14
2018-11-21T19:30:43.071Z,1005.16
2018-11-21T19:31:41.666Z,1005.22
2018-11-21T19:32:40.327Z,1005.18
2018-11-21T19:33:38.901Z,1005.15
2018-11-21T19:36:38.323Z,1005.21
2018-11-21T19:37:36.885Z,1005.22
2018-11-21T19:38:35.437Z,1005.24
2018-11-21T19:39:34.494Z,1005.28
2018-11-21T19:40:33.233Z,1005.19
2018-11-21T19:41:31.782Z,1005.19
2018-11-21T19:42:30.329Z,1005.24
2018-11-21T19:43:28.906Z,1005.18
2018-11-21T19:44:27.426Z,1005.16
2018-11-21T19:45:26.077Z,1005.19
2018-11-21T19:46:24.720Z,1005.18
2018-11-21T19:47:23.304Z,1005.17
2018-11-21T19:48:21.918Z,1005.21
2018-11-21T19:49:20.640Z,1005.2
2018-11-21T19:50:19.233Z,1005.21
2018-11-21T19:51:17.918Z,1005.2
2018-11-21T19:52:16.484Z,1005.24
2018-11-21T19:53:15.018Z,1005.2
2018-11-21T19:54:14.373Z,1005.23
2018-11-21T19:56:54.225Z,1005.26
2018-11-21T19:57:52.808Z,1005.3
2018-11-21T19:58:51.336Z,1005.33
2018-11-21T19:59:50.478Z,1005.33
2018-11-21T20:00:49.136Z,1005.28
2018-11-21T20:01:47.822Z,1005.33
2018-11-21T20:02:46.396Z,1005.37
2018-11-21T20:03:45.061Z,1005.3
2018-11-21T20:04:43.885Z,1005.38
2018-11-21T20:05:42.465Z,1005.38
2018-11-21T20:06:41.236Z,1005.38
2018-11-21T20:09:21.510Z,1005.44
2018-11-21T20:10:20.184Z,1005.41
2018-11-21T20:11:18.769Z,1005.47
2018-11-21T20:12:17.312Z,1005.39
2018-11-21T20:13:15.990Z,1005.43
2018-11-21T20:14:14.672Z,1005.41
2018-11-21T20:15:13.339Z,1005.4
2018-11-21T20:16:11.976Z,1005.41
2018-11-21T20:17:10.495Z,1005.37
2018-11-21T20:18:09.122Z,1005.42
2018-11-21T20:20:49.314Z,1005.4
2018-11-21T20:21:47.915Z,1005.44
2018-11-21T20:22:46.540Z,1005.44
2018-11-21T20:23:45.081Z,1005.41
2018-11-21T20:24:43.630Z,1005.41
2018-11-21T20:28:23.041Z,1005.37
2018-11-21T20:29:21.868Z,1005.31
2018-11-21T20:30:20.511Z,1005.33
2018-11-21T20:31:19.254Z,1005.32
2018-11-21T20:32:18.026Z,1005.34
2018-11-21T20:33:16.620Z,1005.34
2018-11-21T20:34:15.147Z,1005.37
2018-11-21T20:35:13.786Z,1005.4
2018-11-21T20:36:12.480Z,1005.39
2018-11-21T20:37:11.008Z,1005.4
2018-11-21T20:38:09.510Z,1005.33
2018-11-21T20:41:48.555Z,1005.35
2018-11-21T20:42:47.115Z,1005.39
2018-11-21T20:43:45.647Z,1005.39
2018-11-21T20:44:44.494Z,1005.42
2018-11-21T20:45:43.087Z,1005.38
2018-11-21T20:46:41.617Z,1005.45
2018-11-21T20:49:02.866Z,1005.44
2018-11-21T20:50:01.374Z,1005.43
2018-11-21T20:51:00.233Z,1005.45
2018-11-21T20:51:58.846Z,1005.51
2018-11-21T20:52:57.378Z,1005.44
2018-11-21T20:55:37.624Z,1005.37
2018-11-21T20:56:36.269Z,1005.39
2018-11-21T20:57:35.038Z,1005.31
2018-11-21T20:58:33.580Z,1005.36
2018-11-21T20:59:32.163Z,1005.35
2018-11-21T21:00:30.656Z,1005.33
2018-11-21T21:01:29.175Z,1005.41
2018-11-21T21:02:27.697Z,1005.33
2018-11-21T21:03:26.270Z,1005.32
2018-11-21T21:07:04.935Z,1005.37
2018-11-21T21:08:03.444Z,1005.35
2018-11-21T21:09:02.187Z,1005.36
2018-11-21T21:10:00.805Z,1005.36
2018-11-21T21:10:59.372Z,1005.39
2018-11-21T21:13:39.559Z,1005.36
2018-11-21T21:14:38.094Z,1005.36
2018-11-21T21:15:36.611Z,1005.37
2018-11-21T21:19:40.207Z,1005.33
2018-11-21T21:20:38.801Z,1005.38
2018-11-21T21:21:37.383Z,1005.41
2018-11-21T21:22:36.011Z,1005.39
2018-11-21T21:23:34.615Z,1005.42
2018-11-21T21:25:31.653Z,1005.39
2018-11-21T21:26:30.210Z,1005.35
2018-11-21T21:27:28.937Z,1005.37
2018-11-21T21:28:27.476Z,1005.35
2018-11-21T21:29:26.246Z,1005.32
2018-11-21T21:30:24.825Z,1005.38
2018-11-21T21:31:23.336Z,1005.31
2018-11-21T21:32:22.043Z,1005.3
2018-11-21T21:33:20.601Z,1005.28
2018-11-21T21:34:19.117Z,1005.36
2018-11-21T21:35:17.707Z,1005.32
2018-11-21T21:36:16.282Z,1005.28
2018-11-21T21:37:14.817Z,1005.28
2018-11-21T21:38:13.367Z,1005.28
2018-11-21T21:40:53.435Z,1005.32
2018-11-21T21:41:52.026Z,1005.34
2018-11-21T21:42:50.663Z,1005.3
2018-11-21T21:43:49.205Z,1005.35
2018-11-21T21:44:47.827Z,1005.27
2018-11-21T21:45:46.687Z,1005.28
2018-11-21T21:46:45.236Z,1005.25
2018-11-21T21:47:43.781Z,1005.31
2018-11-21T21:48:42.423Z,1005.37
2018-11-21T21:49:40.986Z,1005.39
2018-11-21T21:50:39.492Z,1005.38
2018-11-21T21:51:37.995Z,1005.34
2018-11-21T21:52:36.503Z,1005.37
2018-11-21T21:53:35.059Z,1005.35
2018-11-21T21:54:33.576Z,1005.32
2018-11-21T21:55:32.107Z,1005.4
2018-11-21T21:56:30.631Z,1005.44
2018-11-21T21:57:29.158Z,1005.39
2018-11-21T21:58:27.686Z,1005.38
2018-11-21T21:59:26.200Z,1005.38
2018-11-21T22:00:24.724Z,1005.41
2018-11-21T22:01:23.325Z,1005.42
2018-11-21T22:02:21.854Z,1005.36
2018-11-21T22:03:20.545Z,1005.42
2018-11-21T22:04:19.079Z,1005.39
2018-11-21T22:05:17.622Z,1005.38
2018-11-21T22:06:16.245Z,1005.42
2018-11-21T22:08:39.278Z,1005.44
2018-11-21T22:09:37.897Z,1005.51
2018-11-21T22:10:36.409Z,1005.45
2018-11-21T22:11:34.926Z,1005.48
2018-11-21T22:12:33.437Z,1005.49
2018-11-21T22:13:32.093Z,1005.53
2018-11-21T22:14:30.764Z,1005.53
2018-11-21T22:15:29.288Z,1005.52
2018-11-21T22:16:27.817Z,1005.53
2018-11-21T22:17:26.520Z,1005.55
2018-11-21T22:18:25.079Z,1005.51
2018-11-21T22:19:23.721Z,1005.53
2018-11-21T22:20:22.269Z,1005.54
2018-11-21T22:21:20.871Z,1005.56
2018-11-21T22:22:19.440Z,1005.55
2018-11-21T22:23:17.967Z,1005.48
2018-11-21T22:25:58.158Z,1005.49
2018-11-21T22:26:56.760Z,1005.51
2018-11-21T22:27:55.270Z,1005.5
2018-11-21T22:28:53.845Z,1005.53
2018-11-21T22:29:52.472Z,1005.52
2018-11-21T22:30:51.100Z,1005.52
2018-11-21T22:31:49.620Z,1005.54
2018-11-21T22:32:48.320Z,1005.55
2018-11-21T22:33:46.826Z,1005.54
2018-11-21T22:34:45.332Z,1005.55
2018-11-21T22:35:43.921Z,1005.5
2018-11-21T22:36:42.479Z,1005.47
2018-11-21T22:37:41.078Z,1005.52
2018-11-21T22:38:39.573Z,1005.47
2018-11-21T22:39:38.096Z,1005.5
2018-11-21T22:40:36.598Z,1005.51
2018-11-21T22:41:35.150Z,1005.51
2018-11-21T22:42:33.689Z,1005.51
2018-11-21T22:43:32.235Z,1005.54
2018-11-21T22:44:30.771Z,1005.55
2018-11-21T22:45:29.283Z,1005.55
2018-11-21T22:46:27.821Z,1005.56
2018-11-21T22:47:26.343Z,1005.55
2018-11-21T22:48:24.858Z,1005.55
2018-11-21T22:49:23.526Z,1005.57
2018-11-21T22:50:22.191Z,1005.54
2018-11-21T22:51:20.765Z,1005.51
2018-11-21T22:52:19.250Z,1005.57
2018-11-21T22:53:17.758Z,1005.51
2018-11-21T22:54:16.459Z,1005.55
2018-11-21T22:55:15.067Z,1005.6
2018-11-21T22:56:13.579Z,1005.59
2018-11-21T22:57:12.325Z,1005.55
2018-11-21T22:58:10.875Z,1005.58
2018-11-21T22:59:09.397Z,1005.55
2018-11-21T23:00:07.951Z,1005.56
2018-11-21T23:01:06.499Z,1005.59
2018-11-21T23:02:05.063Z,1005.57
2018-11-21T23:03:03.578Z,1005.58
2018-11-21T23:04:02.133Z,1005.57
2018-11-21T23:05:00.654Z,1005.56
2018-11-21T23:05:59.211Z,1005.58
2018-11-21T23:06:57.729Z,1005.59
2018-11-21T23:07:56.271Z,1005.59
2018-11-21T23:08:54.889Z,1005.58
2018-11-21T23:12:33.593Z,1005.54
2018-11-21T23:13:32.349Z,1005.55
2018-11-21T23:14:30.939Z,1005.49
2018-11-21T23:15:29.490Z,1005.54
2018-11-21T23:16:28.037Z,1005.52
2018-11-21T23:17:26.604Z,1005.5
2018-11-21T23:18:25.163Z,1005.52
2018-11-21T23:19:23.659Z,1005.57
2018-11-21T23:20:22.208Z,1005.54
2018-11-21T23:21:20.713Z,1005.58
2018-11-21T23:22:19.234Z,1005.59
2018-11-21T23:23:17.778Z,1005.57
2018-11-21T23:24:16.316Z,1005.6
2018-11-21T23:25:14.840Z,1005.55
2018-11-21T23:26:13.409Z,1005.53
2018-11-21T23:27:11.957Z,1005.55
2018-11-21T23:28:10.533Z,1005.58
2018-11-21T23:30:50.932Z,1005.48
2018-11-21T23:33:42.960Z,1005.52
2018-11-21T23:34:41.507Z,1005.57
2018-11-21T23:35:40.013Z,1005.54
2018-11-21T23:36:38.588Z,1005.58
2018-11-21T23:37:37.114Z,1005.53
2018-11-21T23:38:35.632Z,1005.54
2018-11-21T23:39:34.213Z,1005.54
2018-11-21T23:40:32.892Z,1005.57
2018-11-21T23:41:31.408Z,1005.56
2018-11-21T23:42:29.960Z,1005.58
2018-11-21T23:43:28.580Z,1005.57
2018-11-21T23:44:27.105Z,1005.59
2018-11-21T23:45:25.641Z,1005.59
2018-11-21T23:46:24.482Z,1005.6
2018-11-21T23:47:22.982Z,1005.59
2018-11-21T23:48:21.545Z,1005.61
2018-11-21T23:49:20.115Z,1005.59
2018-11-21T23:50:18.646Z,1005.54
2018-11-21T23:51:17.186Z,1005.62
2018-11-21T23:54:15.280Z,1005.6
2018-11-21T23:55:13.792Z,1005.62
2018-11-21T23:56:12.386Z,1005.68
2018-11-21T23:57:15.690Z,1005.63
2018-11-21T23:58:09.488Z,1005.63
2018-11-21T23:59:08.281Z,1005.65
